Time;durP1;ratioP1;P1;durP2;ratioP2;P2;SDS_P1;SDS_P2;PMS_P1;PMS_P2;Temp;Humidity;BMP_temperature;BMP_pressure;BME280_temperature;BME280_humidity;BME280_pressure;Samples;Min_cycle;Max_cycle;Signal;HPM_P1;HPM_P2
2023/10/31 00:01:34;;;;;;;11.70;5.30;;;;;;;14.37;97.19;98476.50;129937;1259;114734;-63
2023/10/31 00:04:37;;;;;;;12.60;5.20;;;;;;;14.41;97.23;98474.31;130166;1257;114798;-67
2023/10/31 00:07:40;;;;;;;8.30;4.50;;;;;;;14.44;97.37;98471.35;130216;1254;114724;-66
2023/10/31 00:10:44;;;;;;;10.30;4.60;;;;;;;14.47;97.18;98463.95;129853;1254;114759;-66
2023/10/31 00:13:46;;;;;;;10.40;4.40;;;;;;;14.50;97.41;98467.39;129989;1260;114894;-66
2023/10/31 00:16:49;;;;;;;9.60;4.20;;;;;;;14.53;97.45;98462.85;130013;1257;114798;-61
2023/10/31 00:19:51;;;;;;;8.70;4.70;;;;;;;14.55;97.47;98464.04;129944;1254;114752;-65
2023/10/31 00:22:54;;;;;;;12.10;4.60;;;;;;;14.56;97.60;98451.88;130111;1259;114731;-67
2023/10/31 00:25:56;;;;;;;6.60;4.20;;;;;;;14.58;97.84;98446.70;130021;1259;115246;-67
2023/10/31 00:28:58;;;;;;;13.30;5.10;;;;;;;14.58;97.50;98443.99;130081;1258;115203;-69
2023/10/31 00:32:00;;;;;;;7.30;4.20;;;;;;;14.59;98.00;98446.39;130002;1259;115282;-67
2023/10/31 00:35:03;;;;;;;8.30;4.10;;;;;;;14.60;97.93;98445.03;129899;1272;114702;-66
2023/10/31 00:38:05;;;;;;;7.80;4.40;;;;;;;14.61;97.93;98440.48;129969;1277;114779;-68
2023/10/31 00:41:07;;;;;;;4.00;3.60;;;;;;;14.60;97.88;98435.36;129737;1259;115321;-67
2023/10/31 00:44:09;;;;;;;8.00;3.70;;;;;;;14.60;97.95;98418.64;130018;1253;114738;-65
2023/10/31 00:47:12;;;;;;;7.70;4.70;;;;;;;14.59;98.24;98405.59;129656;1264;115273;-63
2023/10/31 00:50:14;;;;;;;11.40;3.90;;;;;;;14.59;98.13;98400.36;129746;1275;115128;-68
2023/10/31 00:53:17;;;;;;;6.30;3.20;;;;;;;14.59;98.07;98396.61;130083;1258;114728;-63
2023/10/31 00:56:19;;;;;;;8.40;4.00;;;;;;;14.61;98.09;98390.94;130137;1259;114779;-68
2023/10/31 00:59:21;;;;;;;10.00;3.40;;;;;;;14.62;98.02;98380.94;129903;1259;114815;-67
2023/10/31 01:02:25;;;;;;;10.40;3.50;;;;;;;14.63;98.01;98371.49;129950;1253;114767;-68
2023/10/31 01:05:28;;;;;;;6.80;3.60;;;;;;;14.63;97.94;98366.10;129989;1258;114729;-68
2023/10/31 01:08:30;;;;;;;14.20;4.00;;;;;;;14.63;97.93;98360.65;129898;1259;115442;-67
2023/10/31 01:11:36;;;;;;;8.90;3.90;;;;;;;14.64;97.96;98356.52;130084;1262;114808;-66
2023/10/31 01:14:38;;;;;;;7.50;3.50;;;;;;;14.63;98.05;98349.16;129726;1259;114908;-67
2023/10/31 01:17:40;;;;;;;8.80;4.10;;;;;;;14.63;98.00;98348.69;129810;1259;114725;-68
2023/10/31 01:20:42;;;;;;;8.20;4.80;;;;;;;14.62;97.96;98343.77;129991;1254;115144;-67
2023/10/31 01:23:45;;;;;;;8.10;4.60;;;;;;;14.62;97.75;98340.14;130076;1255;114785;-67
2023/10/31 01:26:47;;;;;;;7.80;3.30;;;;;;;14.62;97.85;98330.77;129641;1259;115176;-66
2023/10/31 01:29:49;;;;;;;8.40;3.00;;;;;;;14.62;97.61;98321.23;129925;1259;114695;-68
2023/10/31 01:32:51;;;;;;;10.00;3.90;;;;;;;14.63;97.68;98318.47;130061;1267;115243;-68
2023/10/31 01:35:53;;;;;;;6.20;3.90;;;;;;;14.63;97.80;98318.67;129639;1260;114815;-69
2023/10/31 01:38:56;;;;;;;11.50;4.20;;;;;;;14.62;97.55;98315.16;129504;1261;114830;-67
2023/10/31 01:41:58;;;;;;;9.70;3.40;;;;;;;14.61;97.39;98312.92;129900;1260;114696;-67
2023/10/31 01:45:00;;;;;;;9.90;3.80;;;;;;;14.58;97.36;98307.23;130031;1254;114824;-62
2023/10/31 01:48:05;;;;;;;10.00;3.70;;;;;;;14.58;97.22;98301.56;129733;1265;116351;-61
2023/10/31 01:51:08;;;;;;;10.40;4.10;;;;;;;14.55;97.05;98308.66;130084;1269;114630;-62
2023/10/31 01:54:11;;;;;;;7.70;4.10;;;;;;;14.55;96.99;98309.90;129858;1262;114736;-60
2023/10/31 01:57:14;;;;;;;7.70;3.50;;;;;;;14.54;96.83;98303.11;129882;1262;114802;-60
2023/10/31 02:00:17;;;;;;;6.80;3.20;;;;;;;14.53;96.98;98299.30;130045;1259;115086;-60
2023/10/31 02:03:19;;;;;;;7.60;3.60;;;;;;;14.52;96.66;98290.77;129779;1260;127574;-60
2023/10/31 02:06:21;;;;;;;6.30;3.10;;;;;;;14.51;96.70;98281.90;129896;1270;114918;-60
2023/10/31 02:09:26;;;;;;;11.40;3.80;;;;;;;14.50;96.63;98279.22;129991;1259;114783;-62
2023/10/31 02:12:35;;;;;;;9.90;3.80;;;;;;;14.48;96.59;98273.07;129983;1258;114708;-60
2023/10/31 02:15:37;;;;;;;7.50;3.30;;;;;;;14.47;96.56;98271.95;129650;1262;114805;-61
2023/10/31 02:18:40;;;;;;;7.10;3.20;;;;;;;14.45;96.36;98262.56;129998;1275;114842;-60
2023/10/31 02:21:42;;;;;;;7.80;3.60;;;;;;;14.43;96.45;98255.16;129688;1260;114760;-59
2023/10/31 02:24:44;;;;;;;8.60;3.50;;;;;;;14.43;96.24;98243.75;130099;1256;114711;-60
2023/10/31 02:27:46;;;;;;;7.30;2.60;;;;;;;14.41;96.22;98239.20;129743;1256;114843;-59
2023/10/31 02:30:49;;;;;;;7.60;2.90;;;;;;;14.40;96.06;98236.41;130035;1256;115316;-60
2023/10/31 02:33:51;;;;;;;6.70;2.80;;;;;;;14.39;95.93;98237.83;130168;1276;114657;-60
2023/10/31 02:36:53;;;;;;;7.40;3.40;;;;;;;14.38;95.89;98238.83;130092;1276;114795;-58
2023/10/31 02:39:55;;;;;;;7.20;3.10;;;;;;;14.37;95.82;98227.23;129924;1276;128874;-62
2023/10/31 02:42:58;;;;;;;4.30;2.80;;;;;;;14.37;95.52;98227.27;130011;1254;114856;-62
2023/10/31 02:46:03;;;;;;;6.90;2.90;;;;;;;14.37;95.58;98226.52;130092;1259;115227;-62
2023/10/31 02:49:06;;;;;;;8.60;3.30;;;;;;;14.37;95.42;98222.21;129868;1262;115185;-59
2023/10/31 02:52:08;;;;;;;6.20;2.90;;;;;;;14.37;95.33;98220.76;129948;1254;114719;-62
2023/10/31 02:55:11;;;;;;;8.20;3.50;;;;;;;14.38;95.22;98223.19;129953;1270;114732;-59
2023/10/31 02:58:13;;;;;;;7.00;3.00;;;;;;;14.39;95.16;98220.61;130107;1269;115575;-62
2023/10/31 03:01:17;;;;;;;5.30;3.00;;;;;;;14.40;94.98;98224.45;129720;1276;128317;-63
2023/10/31 03:04:19;;;;;;;9.30;3.10;;;;;;;14.40;94.62;98228.38;129617;1260;115131;-60
2023/10/31 03:07:22;;;;;;;6.10;2.80;;;;;;;14.40;94.89;98229.83;129956;1260;115199;-60
2023/10/31 03:10:24;;;;;;;7.10;2.70;;;;;;;14.40;94.67;98221.77;130058;1269;114690;-65
2023/10/31 03:13:26;;;;;;;4.20;3.00;;;;;;;14.40;94.68;98220.12;130027;1276;114798;-62
2023/10/31 03:16:28;;;;;;;8.10;2.90;;;;;;;14.39;94.48;98217.55;129954;1257;114759;-60
2023/10/31 03:19:31;;;;;;;5.70;2.70;;;;;;;14.40;94.43;98213.11;130090;1266;114789;-63
2023/10/31 03:22:33;;;;;;;6.70;2.90;;;;;;;14.41;94.12;98211.23;129945;1277;114889;-61
2023/10/31 03:25:35;;;;;;;9.60;3.20;;;;;;;14.43;94.15;98210.34;130058;1258;115227;-63
2023/10/31 03:28:38;;;;;;;6.40;2.70;;;;;;;14.44;94.39;98202.31;129916;1259;115202;-61
2023/10/31 03:31:40;;;;;;;6.80;3.00;;;;;;;14.45;94.36;98202.25;130097;1259;114737;-60
2023/10/31 03:34:42;;;;;;;7.00;3.10;;;;;;;14.44;94.50;98200.73;130007;1269;114814;-67
2023/10/31 03:37:45;;;;;;;8.90;3.20;;;;;;;14.41;94.61;98194.47;130018;1254;114792;-61
2023/10/31 03:40:47;;;;;;;9.20;3.80;;;;;;;14.39;94.36;98190.59;129874;1267;114717;-63
2023/10/31 03:43:49;;;;;;;6.00;3.40;;;;;;;14.37;94.20;98187.92;129982;1259;114836;-62
2023/10/31 03:46:52;;;;;;;7.00;3.10;;;;;;;14.35;94.19;98173.54;129552;1254;115230;-67
2023/10/31 03:49:54;;;;;;;7.10;3.50;;;;;;;14.36;94.29;98167.72;129987;1267;114736;-66
2023/10/31 03:52:57;;;;;;;7.60;3.20;;;;;;;14.35;94.50;98162.26;129842;1256;114906;-61
2023/10/31 03:56:00;;;;;;;6.90;2.90;;;;;;;14.33;94.26;98160.83;130061;1264;114728;-63
2023/10/31 03:59:02;;;;;;;5.80;3.20;;;;;;;14.32;94.52;98160.80;130015;1259;114703;-64
2023/10/31 04:02:05;;;;;;;9.20;3.40;;;;;;;14.30;94.78;98159.35;130075;1268;114794;-60
2023/10/31 04:05:07;;;;;;;8.10;3.40;;;;;;;14.28;94.69;98158.60;129997;1260;115335;-60
2023/10/31 04:08:10;;;;;;;6.50;3.60;;;;;;;14.26;94.68;98158.23;130094;1259;114866;-60
2023/10/31 04:11:12;;;;;;;7.10;3.30;;;;;;;14.24;94.95;98163.92;129966;1258;114716;-62
2023/10/31 04:14:14;;;;;;;5.90;3.30;;;;;;;14.21;94.97;98179.05;129783;1262;114662;-61
2023/10/31 04:17:17;;;;;;;6.80;4.10;;;;;;;14.19;94.93;98169.20;130061;1260;114906;-60
2023/10/31 04:20:20;;;;;;;10.30;3.80;;;;;;;14.16;94.87;98163.20;129746;1260;116171;-60
2023/10/31 04:23:22;;;;;;;7.60;3.50;;;;;;;14.14;94.59;98164.99;130002;1268;115132;-61
2023/10/31 04:26:25;;;;;;;6.90;2.90;;;;;;;14.14;94.43;98163.45;130081;1253;115271;-60
2023/10/31 04:29:27;;;;;;;7.40;3.10;;;;;;;14.15;94.17;98160.84;130067;1267;114832;-63
2023/10/31 04:32:29;;;;;;;8.10;2.60;;;;;;;14.18;94.07;98158.04;130010;1261;114722;-61
2023/10/31 04:35:32;;;;;;;5.80;2.60;;;;;;;14.20;93.85;98148.67;129703;1264;114852;-62
2023/10/31 04:38:38;;;;;;;6.20;2.60;;;;;;;14.23;93.62;98147.23;130113;1272;114659;-61
2023/10/31 04:41:40;;;;;;;6.50;2.70;;;;;;;14.28;93.49;98148.21;129673;1265;127865;-62
2023/10/31 04:44:42;;;;;;;6.60;2.90;;;;;;;14.33;93.29;98148.29;129982;1268;114712;-60
2023/10/31 04:47:45;;;;;;;7.20;3.10;;;;;;;14.37;93.23;98138.34;130026;1259;114764;-60
2023/10/31 04:50:47;;;;;;;14.50;2.80;;;;;;;14.41;92.79;98136.50;130109;1261;114973;-61
2023/10/31 04:53:50;;;;;;;4.80;2.60;;;;;;;14.46;92.82;98136.53;130005;1259;114815;-60
2023/10/31 04:56:52;;;;;;;5.00;2.20;;;;;;;14.51;92.54;98135.19;129973;1259;115128;-60
2023/10/31 04:59:57;;;;;;;5.00;2.50;;;;;;;14.56;92.67;98139.88;129866;1271;114731;-63
2023/10/31 05:03:01;;;;;;;;;;;;;;;14.61;92.22;98136.34;130046;1276;114678;-63
2023/10/31 05:06:06;;;;;;;8.50;2.30;;;;;;;14.66;92.20;98131.55;130019;1260;114725;-62
2023/10/31 05:09:10;;;;;;;8.50;2.10;;;;;;;14.71;91.74;98126.73;130109;1276;114849;-65
2023/10/31 05:12:12;;;;;;;4.60;1.80;;;;;;;14.78;91.76;98126.20;129877;1259;115336;-62
2023/10/31 05:15:14;;;;;;;3.80;2.10;;;;;;;14.83;91.51;98127.46;130037;1270;114645;-61
2023/10/31 05:18:17;;;;;;;5.40;2.60;;;;;;;14.88;91.08;98124.63;130162;1260;114722;-62
2023/10/31 05:21:23;;;;;;;7.50;2.30;;;;;;;14.94;90.92;98128.95;130179;1260;115310;-67
2023/10/31 05:24:26;;;;;;;13.20;2.90;;;;;;;14.99;90.83;98129.61;129760;1263;116065;-66
2023/10/31 05:27:29;;;;;;;14.20;3.20;;;;;;;15.03;90.65;98135.83;130167;1257;114782;-62
2023/10/31 05:30:31;;;;;;;7.10;2.40;;;;;;;15.07;90.64;98135.86;130004;1260;114738;-62
2023/10/31 05:33:33;;;;;;;6.90;2.70;;;;;;;15.10;90.39;98136.63;130137;1254;115164;-61
2023/10/31 05:36:36;;;;;;;4.50;2.20;;;;;;;15.12;90.37;98136.95;130190;1260;129097;-65
2023/10/31 05:39:38;;;;;;;3.90;2.40;;;;;;;15.13;90.80;98136.80;130089;1264;115230;-65
2023/10/31 05:42:40;;;;;;;6.70;2.70;;;;;;;15.14;91.08;98143.73;130214;1257;114705;-66
2023/10/31 05:45:43;;;;;;;7.90;2.60;;;;;;;15.14;91.26;98144.48;129779;1261;114949;-60
2023/10/31 05:48:46;;;;;;;9.80;2.10;;;;;;;15.12;91.33;98149.33;130063;1276;114826;-64
2023/10/31 05:51:52;;;;;;;16.30;4.60;;;;;;;15.10;91.63;98156.70;129718;1264;114805;-61
2023/10/31 05:54:54;;;;;;;5.60;2.40;;;;;;;15.08;91.68;98169.17;129981;1257;128805;-64
2023/10/31 05:57:56;;;;;;;6.80;2.80;;;;;;;15.06;91.95;98171.57;129963;1259;114837;-65
2023/10/31 06:00:58;;;;;;;8.10;2.50;;;;;;;15.04;92.08;98170.31;130108;1259;114844;-67
2023/10/31 06:04:01;;;;;;;4.90;2.70;;;;;;;15.02;92.32;98171.77;129776;1264;114811;-67
2023/10/31 06:07:03;;;;;;;7.50;2.60;;;;;;;14.99;92.51;98180.45;129790;1276;114833;-64
2023/10/31 06:10:07;;;;;;;7.60;2.70;;;;;;;14.96;92.66;98188.48;129823;1267;114818;-66
2023/10/31 06:13:09;;;;;;;8.20;3.40;;;;;;;14.94;92.85;98195.58;129868;1259;114689;-66
2023/10/31 06:16:12;;;;;;;7.10;3.60;;;;;;;14.92;93.14;98196.36;130015;1277;115170;-68
2023/10/31 06:19:14;;;;;;;10.80;3.10;;;;;;;14.89;93.41;98203.92;129808;1262;115163;-64
2023/10/31 06:22:16;;;;;;;12.60;3.40;;;;;;;14.87;93.77;98208.33;129976;1257;114737;-66
2023/10/31 06:25:18;;;;;;;8.00;3.20;;;;;;;14.84;93.88;98215.41;129981;1266;115242;-66
2023/10/31 06:28:20;;;;;;;8.90;3.50;;;;;;;14.82;94.09;98221.20;129568;1277;114940;-63
2023/10/31 06:31:23;;;;;;;7.70;3.70;;;;;;;14.81;94.45;98228.73;129999;1267;115148;-68
2023/10/31 06:34:25;;;;;;;6.90;3.50;;;;;;;14.78;94.59;98235.44;130131;1267;114750;-64
2023/10/31 06:37:27;;;;;;;7.30;3.40;;;;;;;14.77;94.77;98244.77;129803;1277;115367;-68
2023/10/31 06:40:31;;;;;;;9.10;4.40;;;;;;;14.75;94.90;98241.48;129702;1263;115271;-67
2023/10/31 06:43:33;;;;;;;5.90;3.30;;;;;;;14.73;95.27;98247.19;129899;1262;114779;-63
2023/10/31 06:46:35;;;;;;;9.80;3.20;;;;;;;14.72;95.50;98253.14;129906;1270;114886;-68
2023/10/31 06:49:37;;;;;;;6.30;3.20;;;;;;;14.70;95.60;98259.19;129948;1259;114715;-68
2023/10/31 06:52:39;;;;;;;10.20;4.00;;;;;;;14.69;95.73;98267.29;129854;1277;114793;-68
2023/10/31 06:55:42;;;;;;;9.10;3.30;;;;;;;14.68;95.85;98272.36;130088;1264;114709;-66
2023/10/31 06:58:44;;;;;;;13.40;5.00;;;;;;;14.69;96.07;98271.72;130188;1267;115363;-66
2023/10/31 07:01:47;;;;;;;10.40;4.30;;;;;;;14.71;96.31;98276.38;130205;1267;115177;-66
2023/10/31 07:04:49;;;;;;;8.60;4.50;;;;;;;14.73;96.23;98285.36;129986;1257;114730;-66
2023/10/31 07:07:51;;;;;;;8.00;3.90;;;;;;;14.74;96.63;98294.05;129949;1257;114699;-65
2023/10/31 07:10:53;;;;;;;8.20;3.80;;;;;;;14.76;96.83;98307.73;130290;1255;114721;-64
2023/10/31 07:13:55;;;;;;;9.10;5.20;;;;;;;14.78;96.67;98313.98;130256;1260;114728;-65
2023/10/31 07:16:57;;;;;;;9.70;5.40;;;;;;;14.80;96.86;98315.45;130226;1257;114800;-67
2023/10/31 07:19:59;;;;;;;16.00;8.70;;;;;;;14.82;97.08;98314.16;130231;1260;115093;-67
2023/10/31 07:23:01;;;;;;;14.50;7.70;;;;;;;14.84;97.18;98314.25;129875;1267;115270;-67
2023/10/31 07:26:04;;;;;;;11.10;4.90;;;;;;;14.88;97.24;98309.77;129820;1254;114705;-67
2023/10/31 07:29:06;;;;;;;9.50;5.20;;;;;;;14.91;97.34;98313.77;130261;1257;115109;-69
2023/10/31 07:32:09;;;;;;;15.00;5.30;;;;;;;14.93;97.29;98317.54;130262;1267;114655;-66
2023/10/31 07:35:11;;;;;;;6.60;4.30;;;;;;;14.93;97.54;98327.78;130140;1263;114672;-66
2023/10/31 07:38:14;;;;;;;9.70;4.90;;;;;;;14.93;97.46;98337.48;130135;1255;115168;-67
2023/10/31 07:41:16;;;;;;;7.00;4.20;;;;;;;14.92;97.55;98349.66;130144;1258;114782;-68
2023/10/31 07:44:18;;;;;;;9.00;4.20;;;;;;;14.89;97.60;98355.81;130289;1257;114718;-68
2023/10/31 07:47:20;;;;;;;7.60;3.30;;;;;;;14.86;97.40;98364.00;130265;1264;114715;-69
2023/10/31 07:50:23;;;;;;;5.50;3.80;;;;;;;14.83;97.33;98360.00;130210;1257;114687;-68
2023/10/31 07:53:25;;;;;;;5.40;2.60;;;;;;;14.80;97.40;98363.02;130189;1277;115161;-65
2023/10/31 07:56:28;;;;;;;3.90;2.90;;;;;;;14.78;97.22;98369.73;129876;1264;116255;-68
2023/10/31 07:59:33;;;;;;;8.00;2.60;;;;;;;14.77;97.34;98378.77;130145;1259;114702;-68
2023/10/31 08:02:35;;;;;;;5.40;3.00;;;;;;;14.81;97.52;98399.06;130254;1277;115170;-65
2023/10/31 08:05:37;;;;;;;6.00;2.80;;;;;;;14.84;97.52;98408.23;130128;1267;114801;-69
2023/10/31 08:08:39;;;;;;;4.80;2.90;;;;;;;14.88;97.55;98419.05;130480;1255;114849;-70
2023/10/31 08:11:41;;;;;;;6.20;2.30;;;;;;;14.90;97.28;98442.06;130421;1258;114807;-69
2023/10/31 08:14:43;;;;;;;3.50;2.10;;;;;;;14.91;97.12;98449.84;130452;1274;114730;-70
2023/10/31 08:17:45;;;;;;;3.20;2.00;;;;;;;14.93;97.12;98452.54;130454;1267;114787;-69
2023/10/31 08:20:49;;;;;;;1.90;1.70;;;;;;;14.96;96.95;98452.05;130476;1257;128877;-68
2023/10/31 08:23:51;;;;;;;2.90;1.90;;;;;;;14.99;96.88;98454.61;129937;1264;115160;-67
2023/10/31 08:26:53;;;;;;;3.80;2.00;;;;;;;15.07;96.75;98454.05;130195;1254;114824;-67
2023/10/31 08:29:55;;;;;;;2.20;1.40;;;;;;;15.14;96.33;98457.91;130280;1267;114770;-65
2023/10/31 08:32:57;;;;;;;2.00;1.50;;;;;;;15.20;96.24;98459.46;129944;1264;116482;-68
2023/10/31 08:35:59;;;;;;;1.30;1.20;;;;;;;15.28;96.14;98458.95;130188;1270;114782;-68
2023/10/31 08:39:01;;;;;;;2.70;1.60;;;;;;;15.40;96.16;98465.89;129891;1257;114714;-68
2023/10/31 08:42:04;;;;;;;2.70;1.40;;;;;;;15.51;96.01;98476.56;130151;1258;129023;-67
2023/10/31 08:45:06;;;;;;;2.30;1.30;;;;;;;15.58;95.65;98487.50;130170;1254;115484;-68
2023/10/31 08:48:08;;;;;;;1.60;1.50;;;;;;;15.66;95.61;98497.34;130192;1258;114814;-67
2023/10/31 08:51:10;;;;;;;3.80;1.60;;;;;;;15.74;95.60;98498.06;130348;1260;114718;-63
2023/10/31 08:54:12;;;;;;;2.80;1.70;;;;;;;15.79;95.15;98502.67;130201;1267;114744;-63
2023/10/31 08:57:14;;;;;;;2.10;1.50;;;;;;;15.82;94.82;98499.70;130213;1257;115167;-63
2023/10/31 09:00:17;;;;;;;5.60;2.00;;;;;;;15.87;94.83;98506.98;130266;1258;114699;-63
2023/10/31 09:03:19;;;;;;;3.40;2.00;;;;;;;15.98;94.74;98512.02;130251;1257;128968;-63
2023/10/31 09:06:25;;;;;;;1.50;1.40;;;;;;;16.07;94.55;98523.77;129824;1258;115279;-63
2023/10/31 09:09:27;;;;;;;3.80;1.30;;;;;;;16.13;94.38;98531.46;130169;1253;114693;-63
2023/10/31 09:12:29;;;;;;;2.70;1.80;;;;;;;16.21;94.41;98529.33;130487;1254;114725;-63
2023/10/31 09:15:31;;;;;;;2.40;1.40;;;;;;;16.32;94.13;98539.73;130438;1258;114705;-62
2023/10/31 09:18:34;;;;;;;2.00;1.50;;;;;;;16.46;93.88;98551.69;130109;1270;114695;-63
2023/10/31 09:21:36;;;;;;;1.70;1.10;;;;;;;16.58;93.71;98552.38;129758;1261;114755;-69
2023/10/31 09:24:40;;;;;;;3.80;1.60;;;;;;;16.74;93.70;98566.32;130305;1267;115112;-68
2023/10/31 09:27:42;;;;;;;2.10;1.50;;;;;;;16.88;93.27;98568.63;130428;1258;114798;-69
2023/10/31 09:30:45;;;;;;;1.60;1.10;;;;;;;17.02;92.86;98571.41;130419;1257;116312;-67
2023/10/31 09:33:47;;;;;;;1.60;1.20;;;;;;;17.16;92.50;98572.80;130351;1276;114712;-68
2023/10/31 09:36:49;;;;;;;3.80;1.30;;;;;;;17.29;92.12;98574.15;130321;1257;114715;-64
2023/10/31 09:39:51;;;;;;;1.30;1.20;;;;;;;17.41;91.60;98578.36;130418;1261;118586;-63
2023/10/31 09:42:53;;;;;;;1.60;1.30;;;;;;;17.52;91.26;98573.77;130451;1276;128721;-63
2023/10/31 09:45:57;;;;;;;1.20;1.10;;;;;;;17.58;90.51;98577.21;130444;1254;114708;-63
2023/10/31 09:48:59;;;;;;;1.80;1.20;;;;;;;17.64;90.34;98575.91;130427;1257;114788;-63
2023/10/31 09:52:01;;;;;;;4.60;1.40;;;;;;;17.71;89.96;98565.73;130238;1254;114873;-64
2023/10/31 09:55:04;;;;;;;7.90;2.60;;;;;;;17.75;89.64;98564.63;127589;1267;3266867;-63
2023/10/31 09:58:07;;;;;;;2.30;1.20;;;;;;;17.77;89.10;98569.04;130298;1256;115196;-65
2023/10/31 10:01:11;;;;;;;1.00;0.90;;;;;;;17.78;88.70;98577.27;130280;1257;114849;-65
2023/10/31 10:04:13;;;;;;;1.90;1.30;;;;;;;17.81;88.64;98573.96;130295;1254;114841;-63
2023/10/31 10:07:19;;;;;;;3.40;1.10;;;;;;;17.85;88.37;98567.91;130190;1254;114722;-64
2023/10/31 10:10:21;;;;;;;1.70;1.00;;;;;;;17.91;88.28;98567.59;129889;1264;114792;-63
2023/10/31 10:13:23;;;;;;;1.10;1.10;;;;;;;17.97;87.66;98571.55;130137;1257;115246;-64
2023/10/31 10:16:30;;;;;;;4.60;1.10;;;;;;;18.01;87.23;98574.84;129941;1260;114798;-66
2023/10/31 10:19:32;;;;;;;3.40;1.40;;;;;;;18.05;87.20;98577.66;129634;1254;126873;-63
2023/10/31 10:22:44;;;;;;;1.10;1.10;;;;;;;18.04;86.46;98586.50;130063;1257;114775;-62
2023/10/31 10:25:49;;;;;;;1.40;1.10;;;;;;;17.92;85.89;98597.85;129950;1258;114724;-62
2023/10/31 10:28:51;;;;;;;2.10;1.00;;;;;;;17.76;84.70;98617.95;129997;1266;114687;-63
2023/10/31 10:31:54;;;;;;;2.80;1.10;;;;;;;17.57;84.39;98629.40;130392;1257;114916;-63
2023/10/31 10:34:56;;;;;;;1.40;1.30;;;;;;;17.33;83.57;98638.90;130205;1257;114804;-63
2023/10/31 10:37:59;;;;;;;1.60;1.40;;;;;;;17.09;83.17;98648.56;129936;1269;114773;-63
2023/10/31 10:41:02;;;;;;;1.60;1.30;;;;;;;16.87;82.87;98656.56;130279;1261;115179;-64
2023/10/31 10:44:06;;;;;;;2.40;1.00;;;;;;;16.67;82.23;98675.77;130007;1260;114901;-60
2023/10/31 10:47:12;;;;;;;3.10;1.00;;;;;;;16.43;81.60;98685.13;130063;1257;114769;-63
2023/10/31 10:50:15;;;;;;;2.90;0.80;;;;;;;16.22;81.74;98679.30;130187;1257;114809;-64
2023/10/31 10:53:30;;;;;;;1.10;0.80;;;;;;;16.06;81.92;98671.30;129954;1257;127737;-63
2023/10/31 10:56:38;;;;;;;0.70;0.70;;;;;;;15.96;82.01;98668.00;129790;1260;114731;-62
2023/10/31 10:59:50;;;;;;;0.80;0.80;;;;;;;15.94;82.06;98663.80;129989;1257;115001;-63
2023/10/31 11:02:53;;;;;;;0.70;0.70;;;;;;;15.95;81.55;98659.06;130162;1254;114909;-62
2023/10/31 11:05:55;;;;;;;1.60;0.80;;;;;;;15.95;81.26;98656.35;130089;1256;114718;-62
2023/10/31 11:08:58;;;;;;;1.60;0.90;;;;;;;15.98;81.62;98646.66;130280;1257;114715;-63
2023/10/31 11:12:00;;;;;;;2.30;0.80;;;;;;;16.03;81.23;98638.98;130132;1276;114767;-62
2023/10/31 11:15:04;;;;;;;0.80;0.80;;;;;;;16.09;80.82;98635.88;129882;1257;115241;-63
2023/10/31 11:18:06;;;;;;;1.00;0.80;;;;;;;16.15;80.66;98641.23;129787;1259;114741;-64
2023/10/31 11:21:08;;;;;;;1.10;0.80;;;;;;;16.21;80.37;98647.13;130396;1254;114763;-63
2023/10/31 11:24:10;;;;;;;2.20;0.90;;;;;;;16.25;79.78;98648.02;130080;1253;114802;-61
2023/10/31 11:27:13;;;;;;;1.60;1.00;;;;;;;16.27;79.68;98645.29;130289;1277;114728;-63
2023/10/31 11:30:30;;;;;;;1.10;0.80;;;;;;;16.28;79.52;98647.92;130115;1260;114749;-63
2023/10/31 11:33:32;;;;;;;2.60;1.60;;;;;;;16.32;79.57;98658.46;130004;1262;115160;-64
2023/10/31 11:36:38;;;;;;;2.90;1.10;;;;;;;16.33;79.32;98661.80;130153;1277;115402;-62
2023/10/31 11:39:39;;;;;;;4.90;1.00;;;;;;;16.30;78.44;98664.42;130234;1261;114812;-63
2023/10/31 11:42:42;;;;;;;1.10;0.90;;;;;;;16.26;78.41;98672.45;130238;1257;115154;-63
2023/10/31 11:45:47;;;;;;;3.30;0.80;;;;;;;16.22;78.76;98674.91;130262;1254;114766;-64
2023/10/31 11:48:55;;;;;;;3.30;1.70;;;;;;;16.18;78.60;98678.56;129912;1262;129142;-63
2023/10/31 11:51:57;;;;;;;1.60;1.50;;;;;;;16.14;78.46;98680.60;129965;1261;115154;-63
2023/10/31 11:54:59;;;;;;;4.60;1.20;;;;;;;16.09;78.20;98687.90;130164;1261;115234;-63
2023/10/31 11:58:23;;;;;;;2.40;1.10;;;;;;;16.05;77.94;98686.17;130199;1260;114793;-63
2023/10/31 12:01:25;;;;;;;3.50;1.80;;;;;;;16.02;77.88;98685.42;130332;1257;114719;-63
2023/10/31 12:04:27;;;;;;;3.00;1.60;;;;;;;16.00;78.00;98686.38;130386;1257;115219;-63
2023/10/31 12:07:29;;;;;;;5.20;1.90;;;;;;;15.96;77.74;98689.95;130522;1269;114752;-61
2023/10/31 12:10:31;;;;;;;5.40;2.00;;;;;;;15.98;77.83;98683.65;129948;1253;128904;-60
2023/10/31 12:13:36;;;;;;;4.70;1.90;;;;;;;15.99;77.89;98680.49;131492;1257;115256;-60
2023/10/31 12:16:38;;;;;;;3.30;1.40;;;;;;;16.01;77.64;98669.28;130151;1254;115058;-62
2023/10/31 12:19:40;;;;;;;4.30;1.10;;;;;;;16.03;77.18;98655.23;130209;1257;114804;-61
2023/10/31 12:22:42;;;;;;;1.80;1.10;;;;;;;16.07;77.19;98659.52;129963;1258;114706;-58
2023/10/31 12:25:49;;;;;;;5.00;1.30;;;;;;;16.13;77.07;98657.33;129679;1260;114866;-60
2023/10/31 12:29:06;;;;;;;3.10;1.20;;;;;;;16.19;76.60;98651.00;129663;1277;127743;-60
2023/10/31 12:32:13;;;;;;;1.90;1.40;;;;;;;16.21;76.48;98644.13;129598;1263;115158;-60
2023/10/31 12:35:20;;;;;;;2.60;1.10;;;;;;;16.24;76.21;98638.25;130045;1254;114731;-61
2023/10/31 12:38:22;;;;;;;2.40;0.90;;;;;;;16.20;75.45;98641.44;129756;1257;114806;-60
2023/10/31 12:41:25;;;;;;;1.50;1.10;;;;;;;16.16;75.04;98648.51;129931;1260;114755;-61
2023/10/31 12:44:28;;;;;;;2.00;1.20;;;;;;;16.13;74.83;98650.77;129988;1257;114702;-62
2023/10/31 12:47:30;;;;;;;3.90;1.50;;;;;;;16.10;74.43;98655.61;129854;1254;115627;-60
2023/10/31 12:50:34;;;;;;;3.70;1.40;;;;;;;16.08;74.85;98662.08;130028;1277;115182;-60
2023/10/31 12:53:36;;;;;;;2.30;1.30;;;;;;;16.09;74.96;98674.74;129618;1272;114716;-60
2023/10/31 12:56:40;;;;;;;5.70;1.10;;;;;;;16.06;74.50;98667.75;130018;1277;114827;-61
2023/10/31 12:59:42;;;;;;;1.70;1.20;;;;;;;16.02;74.29;98662.06;129997;1257;114829;-62
2023/10/31 13:02:44;;;;;;;1.50;1.10;;;;;;;16.00;74.51;98670.83;129679;1262;114936;-62
2023/10/31 13:05:47;;;;;;;5.00;1.40;;;;;;;15.97;74.27;98671.48;130149;1276;114613;-59
2023/10/31 13:08:49;;;;;;;4.00;0.90;;;;;;;15.93;74.31;98673.98;130084;1267;115260;-59
2023/10/31 13:11:52;;;;;;;1.50;1.20;;;;;;;15.90;73.83;98675.97;130010;1253;114751;-59
2023/10/31 13:14:54;;;;;;;1.80;1.00;;;;;;;15.86;73.90;98687.68;130130;1257;114689;-59
2023/10/31 13:17:57;;;;;;;1.40;1.20;;;;;;;15.84;74.06;98691.61;129726;1260;114767;-60
2023/10/31 13:20:59;;;;;;;3.10;1.40;;;;;;;15.83;74.03;98693.73;130115;1257;115230;-59
2023/10/31 13:24:03;;;;;;;3.30;1.20;;;;;;;15.78;73.26;98710.57;130210;1268;114725;-60
2023/10/31 13:27:06;;;;;;;3.10;1.90;;;;;;;15.71;73.01;98725.09;129676;1267;114892;-61
2023/10/31 13:30:13;;;;;;;1.90;1.40;;;;;;;15.67;73.50;98735.16;129730;1259;116026;-60
2023/10/31 13:33:15;;;;;;;1.50;1.10;;;;;;;15.66;73.29;98744.99;129753;1262;114885;-60
2023/10/31 13:36:20;;;;;;;1.50;1.20;;;;;;;15.62;73.41;98758.48;129995;1257;114798;-61
2023/10/31 13:39:23;;;;;;;;;;;;;;;15.61;73.33;98762.45;129730;1254;127666;-62
2023/10/31 13:42:25;;;;;;;3.20;1.70;;;;;;;15.55;72.84;98770.13;130038;1258;114720;-62
2023/10/31 13:45:27;;;;;;;3.50;1.30;;;;;;;15.49;73.09;98773.91;130142;1256;114753;-60
2023/10/31 13:48:30;;;;;;;1.80;1.00;;;;;;;15.46;73.15;98779.63;130169;1257;114786;-67
2023/10/31 13:51:32;;;;;;;2.70;0.90;;;;;;;15.39;72.60;98775.05;130241;1257;114718;-66
2023/10/31 13:54:34;;;;;;;4.70;1.20;;;;;;;15.34;72.84;98771.77;130077;1276;114820;-67
2023/10/31 13:57:37;;;;;;;1.90;1.40;;;;;;;15.29;72.67;98776.71;130191;1260;114810;-66
2023/10/31 14:00:39;;;;;;;1.60;1.30;;;;;;;15.24;72.57;98787.42;129857;1254;128387;-66